Details From EGPE - Inverness
To EGPK - Prestwick
Flight Number -
Tags Generated
Created
Modified
Stats Distance 125 nm / 231 km
Max Altitude 0 ft / 0 m
Waypoints 2
Social Downloads 2
Likes 0
Share VATSIM

Download

Looking for another format? Having issues loading an existing format? Contact us
Advertisement - Login to hide

Notes

Generated

Route

EGPE EGPK

ID Type Via Altitude Latitude Longitude Leg Dist Tot Dist Heading (true) Name
O EGPE APT - 0 ft / 0 m 57.54464˚ -4.05987˚ - 0 nm - -
O EGPK APT - 0 ft / 0 m 55.48836˚ -4.58741˚ 124 nm 124 nm 188° / 188° -

Altitude Profile

Advertisement - Login to hide

EGPE

Details ICAO EGPE (INV)
Name Inverness
Region United Kingdom
Timezone Europe/London (UTC+1.0)
Stats Elevation 31 ft / 9 m (AMSL)
Location 57.543039° -4.050944°
Runways 2
Magnetic Variation 2.803° W

METAR

EGPE 210850Z 33003KT 9999 FEW004 BKN039 14/14 Q1017

Decode

TAF

Not found

Departure Runways

ID Width Length Bearing (true) Bearing (mag) Surface Threshold Offset Overrun Length
05 151 ft / 46 m 6,179 ft / 1,883 m 49.39° 52.19° Asphalt 220 ft / 67 m 0 ft / 0 m
12 59 ft / 18 m 2,299 ft / 701 m 109.63° 112.43° Asphalt 0 ft / 0 m 0 ft / 0 m
23 151 ft / 46 m 6,179 ft / 1,883 m 229.41° 232.21° Asphalt 0 ft / 0 m 0 ft / 0 m
30 59 ft / 18 m 2,299 ft / 701 m 289.64° 292.44° Asphalt 0 ft / 0 m 0 ft / 0 m

EGPK

Details ICAO EGPK (PIK)
Name Prestwick
Region United Kingdom
Timezone Europe/London (UTC+1.0)
Stats Elevation 65 ft / 20 m (AMSL)
Location 55.502302° -4.588363°
Runways 2
Magnetic Variation 2.654° W

METAR

EGPK 210850Z 18009KT 9999 FEW040 17/09 Q1017

Decode

TAF

TAF TAF EGPK 210507Z 2106/2206 10007KT 9999 SCT035 PROB30 TEMPO 2106/2206 BKN009 PROB30 TEMPO 2202/2206 6000 -RADZ

Decode

Destination Runways

ID Width Length Bearing (true) Bearing (mag) Surface Threshold Offset Overrun Length
03 148 ft / 45 m 6,534 ft / 1,992 m 23.69° 26.34° Asphalt 538 ft / 164 m 0 ft / 0 m
13 151 ft / 46 m 9,789 ft / 2,984 m 121.38° 124.03° Asphalt 817 ft / 249 m 0 ft / 0 m
21 148 ft / 45 m 6,534 ft / 1,992 m 203.71° 206.36° Asphalt 0 ft / 0 m 0 ft / 0 m
31 151 ft / 46 m 9,789 ft / 2,984 m 301.42° 304.07° Asphalt 0 ft / 0 m 0 ft / 0 m

Approach Navaids

Runway Type Ident Frequency Range Bearing (true) Bearing (mag) Slope Elevation
13 Localiser IPP 110.30 MHz 18 nm / 33 km 121.42° 124.08° - 66 ft / 20 m (AMSL)
13 Glidescope IPP 110.30 MHz 10 nm / 19 km 121.40° 124.05° 3.00° 53 ft / 16 m (AMSL)
13 DME IPP 110.30 MHz 18 nm / 33 km - - - 48 ft / 15 m (AMSL)
31 Localiser IKK 110.30 MHz 18 nm / 33 km 301.38° 304.04° - 38 ft / 12 m (AMSL)
31 Glidescope IKK 110.30 MHz 10 nm / 19 km 301.40° 304.05° 3.50° 56 ft / 17 m (AMSL)
31 DME IKK 110.30 MHz 18 nm / 33 km - - - 48 ft / 15 m (AMSL)

Popular Alternatives